sensor_id;sensor_type;location;lat;lon;timestamp;temperature;humidity
11538;DHT22;50159;49.426;11.182;2023-12-29T00:02:12;7.50;99.90
11538;DHT22;50159;49.426;11.182;2023-12-29T00:04:39;7.50;99.90
11538;DHT22;50159;49.426;11.182;2023-12-29T00:07:06;7.50;99.90
11538;DHT22;50159;49.426;11.182;2023-12-29T00:09:33;7.50;99.90
11538;DHT22;50159;49.426;11.182;2023-12-29T00:12:07;7.50;99.90
11538;DHT22;50159;49.426;11.182;2023-12-29T00:14:39;7.60;99.90
11538;DHT22;50159;49.426;11.182;2023-12-29T00:17:06;7.60;99.90
11538;DHT22;50159;49.426;11.182;2023-12-29T00:19:33;7.60;99.90
11538;DHT22;50159;49.426;11.182;2023-12-29T00:22:00;7.60;99.90
11538;DHT22;50159;49.426;11.182;2023-12-29T00:24:30;7.60;99.90
11538;DHT22;50159;49.426;11.182;2023-12-29T00:27:00;7.60;99.90
11538;DHT22;50159;49.426;11.182;2023-12-29T00:29:27;7.60;99.90
11538;DHT22;50159;49.426;11.182;2023-12-29T00:31:59;7.60;99.90
11538;DHT22;50159;49.426;11.182;2023-12-29T00:34:27;7.60;99.90
11538;DHT22;50159;49.426;11.182;2023-12-29T00:36:54;7.60;99.90
11538;DHT22;50159;49.426;11.182;2023-12-29T00:39:21;7.60;99.90
11538;DHT22;50159;49.426;11.182;2023-12-29T00:41:56;7.50;99.90
11538;DHT22;50159;49.426;11.182;2023-12-29T00:44:23;7.50;99.90
11538;DHT22;50159;49.426;11.182;2023-12-29T00:46:50;7.50;99.90
11538;DHT22;50159;49.426;11.182;2023-12-29T00:49:17;7.50;99.90
11538;DHT22;50159;49.426;11.182;2023-12-29T00:51:44;7.50;99.90
11538;DHT22;50159;49.426;11.182;2023-12-29T00:54:11;7.50;99.90
11538;DHT22;50159;49.426;11.182;2023-12-29T00:56:38;7.50;99.90
11538;DHT22;50159;49.426;11.182;2023-12-29T00:59:05;7.50;99.90
11538;DHT22;50159;49.426;11.182;2023-12-29T01:01:35;7.50;99.90
11538;DHT22;50159;49.426;11.182;2023-12-29T01:04:02;7.50;99.90
11538;DHT22;50159;49.426;11.182;2023-12-29T01:06:30;7.50;99.90
11538;DHT22;50159;49.426;11.182;2023-12-29T01:08:57;7.60;99.90
11538;DHT22;50159;49.426;11.182;2023-12-29T01:11:24;7.60;99.90
11538;DHT22;50159;49.426;11.182;2023-12-29T01:13:50;7.60;99.90
11538;DHT22;50159;49.426;11.182;2023-12-29T01:16:17;7.60;99.90
11538;DHT22;50159;49.426;11.182;2023-12-29T01:18:44;7.60;99.90
11538;DHT22;50159;49.426;11.182;2023-12-29T01:21:11;7.60;99.90
11538;DHT22;50159;49.426;11.182;2023-12-29T01:23:38;7.70;99.90
11538;DHT22;50159;49.426;11.182;2023-12-29T01:26:05;7.70;99.90
11538;DHT22;50159;49.426;11.182;2023-12-29T01:28:32;7.70;99.90
11538;DHT22;50159;49.426;11.182;2023-12-29T01:30:59;7.70;99.90
11538;DHT22;50159;49.426;11.182;2023-12-29T01:33:26;7.70;99.90
11538;DHT22;50159;49.426;11.182;2023-12-29T01:35:52;7.80;99.90
11538;DHT22;50159;49.426;11.182;2023-12-29T01:38:19;7.80;99.90
11538;DHT22;50159;49.426;11.182;2023-12-29T01:40:47;7.70;99.90
11538;DHT22;50159;49.426;11.182;2023-12-29T01:43:14;7.70;99.90
11538;DHT22;50159;49.426;11.182;2023-12-29T01:45:41;7.70;99.90
11538;DHT22;50159;49.426;11.182;2023-12-29T01:48:23;7.60;99.90
11538;DHT22;50159;49.426;11.182;2023-12-29T01:50:51;7.60;99.90
11538;DHT22;50159;49.426;11.182;2023-12-29T01:53:20;7.50;99.90
11538;DHT22;50159;49.426;11.182;2023-12-29T01:56:00;7.50;99.90
11538;DHT22;50159;49.426;11.182;2023-12-29T01:58:27;7.50;99.90
11538;DHT22;50159;49.426;11.182;2023-12-29T02:00:55;7.50;99.90
11538;DHT22;50159;49.426;11.182;2023-12-29T02:03:22;7.50;99.90
11538;DHT22;50159;49.426;11.182;2023-12-29T02:05:49;7.40;99.90
11538;DHT22;50159;49.426;11.182;2023-12-29T02:08:17;7.40;99.90
11538;DHT22;50159;49.426;11.182;2023-12-29T02:10:44;7.30;99.90
11538;DHT22;50159;49.426;11.182;2023-12-29T02:13:11;7.30;99.90
11538;DHT22;50159;49.426;11.182;2023-12-29T02:15:38;7.30;99.90
11538;DHT22;50159;49.426;11.182;2023-12-29T02:18:07;7.30;99.90
11538;DHT22;50159;49.426;11.182;2023-12-29T02:20:38;7.30;99.90
11538;DHT22;50159;49.426;11.182;2023-12-29T02:23:05;7.30;99.90
11538;DHT22;50159;49.426;11.182;2023-12-29T02:25:33;7.30;99.90
11538;DHT22;50159;49.426;11.182;2023-12-29T02:28:08;7.30;99.90
11538;DHT22;50159;49.426;11.182;2023-12-29T02:30:51;7.30;99.90
11538;DHT22;50159;49.426;11.182;2023-12-29T02:33:25;7.30;99.90
11538;DHT22;50159;49.426;11.182;2023-12-29T02:35:56;7.30;99.90
11538;DHT22;50159;49.426;11.182;2023-12-29T02:38:26;7.30;99.90
11538;DHT22;50159;49.426;11.182;2023-12-29T02:40:58;7.30;99.90
11538;DHT22;50159;49.426;11.182;2023-12-29T02:43:25;7.30;99.90
11538;DHT22;50159;49.426;11.182;2023-12-29T02:45:52;7.30;99.90
11538;DHT22;50159;49.426;11.182;2023-12-29T02:48:19;7.40;99.90
11538;DHT22;50159;49.426;11.182;2023-12-29T02:50:46;7.40;99.90
11538;DHT22;50159;49.426;11.182;2023-12-29T02:53:13;7.40;99.90
11538;DHT22;50159;49.426;11.182;2023-12-29T02:55:40;7.40;99.90
11538;DHT22;50159;49.426;11.182;2023-12-29T02:58:06;7.40;99.90
11538;DHT22;50159;49.426;11.182;2023-12-29T03:00:33;7.40;99.90
11538;DHT22;50159;49.426;11.182;2023-12-29T03:03:00;7.40;99.90
11538;DHT22;50159;49.426;11.182;2023-12-29T03:05:27;7.30;99.90
11538;DHT22;50159;49.426;11.182;2023-12-29T03:07:54;7.30;99.90
11538;DHT22;50159;49.426;11.182;2023-12-29T03:10:21;7.30;99.90
11538;DHT22;50159;49.426;11.182;2023-12-29T03:12:48;7.30;99.90
11538;DHT22;50159;49.426;11.182;2023-12-29T03:15:15;7.30;99.90
11538;DHT22;50159;49.426;11.182;2023-12-29T03:17:42;7.30;99.90
11538;DHT22;50159;49.426;11.182;2023-12-29T03:20:10;7.30;99.90
11538;DHT22;50159;49.426;11.182;2023-12-29T03:22:37;7.20;99.90
11538;DHT22;50159;49.426;11.182;2023-12-29T03:25:04;7.20;99.90
11538;DHT22;50159;49.426;11.182;2023-12-29T03:27:32;7.20;99.90
11538;DHT22;50159;49.426;11.182;2023-12-29T03:29:58;7.20;99.90
11538;DHT22;50159;49.426;11.182;2023-12-29T03:32:25;7.10;99.90
11538;DHT22;50159;49.426;11.182;2023-12-29T03:34:52;7.10;99.90
11538;DHT22;50159;49.426;11.182;2023-12-29T03:37:19;7.10;99.90
11538;DHT22;50159;49.426;11.182;2023-12-29T03:39:46;7.10;99.90
11538;DHT22;50159;49.426;11.182;2023-12-29T03:42:13;7.00;99.90
11538;DHT22;50159;49.426;11.182;2023-12-29T03:44:40;7.00;99.90
11538;DHT22;50159;49.426;11.182;2023-12-29T03:47:07;7.00;99.90
11538;DHT22;50159;49.426;11.182;2023-12-29T03:49:34;7.00;99.90
11538;DHT22;50159;49.426;11.182;2023-12-29T03:52:01;7.00;99.90
11538;DHT22;50159;49.426;11.182;2023-12-29T03:54:28;7.00;99.90
11538;DHT22;50159;49.426;11.182;2023-12-29T03:56:55;7.00;99.90
11538;DHT22;50159;49.426;11.182;2023-12-29T03:59:22;6.90;99.90
11538;DHT22;50159;49.426;11.182;2023-12-29T04:01:48;6.90;99.90
11538;DHT22;50159;49.426;11.182;2023-12-29T04:04:16;6.80;99.90
11538;DHT22;50159;49.426;11.182;2023-12-29T04:06:43;6.80;99.90
11538;DHT22;50159;49.426;11.182;2023-12-29T04:09:10;6.70;99.90
11538;DHT22;50159;49.426;11.182;2023-12-29T04:11:37;6.70;99.90
11538;DHT22;50159;49.426;11.182;2023-12-29T04:14:04;6.70;99.90
11538;DHT22;50159;49.426;11.182;2023-12-29T04:16:30;6.70;99.90
11538;DHT22;50159;49.426;11.182;2023-12-29T04:18:57;6.70;99.90
11538;DHT22;50159;49.426;11.182;2023-12-29T04:21:24;6.70;99.90
11538;DHT22;50159;49.426;11.182;2023-12-29T04:23:51;6.70;99.90
11538;DHT22;50159;49.426;11.182;2023-12-29T04:26:18;6.70;99.90
11538;DHT22;50159;49.426;11.182;2023-12-29T04:28:44;6.70;99.90
11538;DHT22;50159;49.426;11.182;2023-12-29T04:31:11;6.60;99.90
11538;DHT22;50159;49.426;11.182;2023-12-29T04:33:38;6.60;99.90
11538;DHT22;50159;49.426;11.182;2023-12-29T04:36:05;6.60;99.90
11538;DHT22;50159;49.426;11.182;2023-12-29T04:38:33;6.60;99.90
11538;DHT22;50159;49.426;11.182;2023-12-29T04:41:00;6.60;99.90
11538;DHT22;50159;49.426;11.182;2023-12-29T04:43:26;6.50;99.90
11538;DHT22;50159;49.426;11.182;2023-12-29T04:45:53;6.50;99.90
11538;DHT22;50159;49.426;11.182;2023-12-29T04:48:20;6.50;99.90
11538;DHT22;50159;49.426;11.182;2023-12-29T04:50:47;6.40;99.90
11538;DHT22;50159;49.426;11.182;2023-12-29T04:53:14;6.40;99.90
11538;DHT22;50159;49.426;11.182;2023-12-29T04:55:41;6.40;99.90
11538;DHT22;50159;49.426;11.182;2023-12-29T04:58:08;6.30;99.90
11538;DHT22;50159;49.426;11.182;2023-12-29T05:00:34;6.30;99.90
11538;DHT22;50159;49.426;11.182;2023-12-29T05:03:01;6.30;99.90
11538;DHT22;50159;49.426;11.182;2023-12-29T05:05:28;6.30;99.90
11538;DHT22;50159;49.426;11.182;2023-12-29T05:07:55;6.30;99.90
11538;DHT22;50159;49.426;11.182;2023-12-29T05:10:22;6.30;99.90
11538;DHT22;50159;49.426;11.182;2023-12-29T05:12:49;6.30;99.90
11538;DHT22;50159;49.426;11.182;2023-12-29T05:15:15;6.30;99.90
11538;DHT22;50159;49.426;11.182;2023-12-29T05:17:42;6.30;99.90
11538;DHT22;50159;49.426;11.182;2023-12-29T05:20:10;6.30;99.90
11538;DHT22;50159;49.426;11.182;2023-12-29T05:22:37;6.30;99.90
11538;DHT22;50159;49.426;11.182;2023-12-29T05:25:05;6.30;99.90
11538;DHT22;50159;49.426;11.182;2023-12-29T05:27:32;6.30;99.90
11538;DHT22;50159;49.426;11.182;2023-12-29T05:30:01;6.30;99.90
11538;DHT22;50159;49.426;11.182;2023-12-29T05:32:28;6.30;99.90
11538;DHT22;50159;49.426;11.182;2023-12-29T05:34:55;6.20;99.90
11538;DHT22;50159;49.426;11.182;2023-12-29T05:37:22;6.20;99.90
11538;DHT22;50159;49.426;11.182;2023-12-29T05:39:49;6.20;99.90
11538;DHT22;50159;49.426;11.182;2023-12-29T05:42:16;6.20;99.90
11538;DHT22;50159;49.426;11.182;2023-12-29T05:44:43;6.20;99.90
11538;DHT22;50159;49.426;11.182;2023-12-29T05:47:10;6.20;99.90
11538;DHT22;50159;49.426;11.182;2023-12-29T05:49:38;6.20;99.90
11538;DHT22;50159;49.426;11.182;2023-12-29T05:52:06;6.20;99.90
11538;DHT22;50159;49.426;11.182;2023-12-29T05:54:33;6.20;99.90
11538;DHT22;50159;49.426;11.182;2023-12-29T05:57:01;6.20;99.90
11538;DHT22;50159;49.426;11.182;2023-12-29T05:59:28;6.20;99.90
11538;DHT22;50159;49.426;11.182;2023-12-29T06:01:55;6.20;99.90
11538;DHT22;50159;49.426;11.182;2023-12-29T06:04:23;6.30;99.90
11538;DHT22;50159;49.426;11.182;2023-12-29T06:06:50;6.30;99.90
11538;DHT22;50159;49.426;11.182;2023-12-29T06:09:17;6.30;99.90
11538;DHT22;50159;49.426;11.182;2023-12-29T06:11:44;6.30;99.90
11538;DHT22;50159;49.426;11.182;2023-12-29T06:14:11;6.30;99.90
11538;DHT22;50159;49.426;11.182;2023-12-29T06:16:38;6.30;99.90
11538;DHT22;50159;49.426;11.182;2023-12-29T06:19:05;6.20;99.90
11538;DHT22;50159;49.426;11.182;2023-12-29T06:21:32;6.20;99.90
11538;DHT22;50159;49.426;11.182;2023-12-29T06:23:59;6.20;99.90
11538;DHT22;50159;49.426;11.182;2023-12-29T06:26:26;6.20;99.90
11538;DHT22;50159;49.426;11.182;2023-12-29T06:28:53;6.20;99.90
11538;DHT22;50159;49.426;11.182;2023-12-29T06:31:20;6.20;99.90
11538;DHT22;50159;49.426;11.182;2023-12-29T06:33:47;6.20;99.90
11538;DHT22;50159;49.426;11.182;2023-12-29T06:36:14;6.20;99.90
11538;DHT22;50159;49.426;11.182;2023-12-29T06:38:41;6.20;99.90
11538;DHT22;50159;49.426;11.182;2023-12-29T06:41:09;6.20;99.90
11538;DHT22;50159;49.426;11.182;2023-12-29T06:43:35;6.20;99.90
11538;DHT22;50159;49.426;11.182;2023-12-29T06:46:02;6.30;99.90
11538;DHT22;50159;49.426;11.182;2023-12-29T06:48:30;6.30;99.90
11538;DHT22;50159;49.426;11.182;2023-12-29T06:50:57;6.30;99.90
11538;DHT22;50159;49.426;11.182;2023-12-29T06:53:24;6.40;99.90
11538;DHT22;50159;49.426;11.182;2023-12-29T06:55:51;6.40;99.90
11538;DHT22;50159;49.426;11.182;2023-12-29T06:58:17;6.40;99.90
11538;DHT22;50159;49.426;11.182;2023-12-29T07:00:44;6.50;99.90
11538;DHT22;50159;49.426;11.182;2023-12-29T07:03:15;6.50;99.90
11538;DHT22;50159;49.426;11.182;2023-12-29T07:05:42;6.50;99.90
11538;DHT22;50159;49.426;11.182;2023-12-29T07:08:12;6.60;99.90
11538;DHT22;50159;49.426;11.182;2023-12-29T07:10:39;6.60;99.90
11538;DHT22;50159;49.426;11.182;2023-12-29T07:13:06;6.60;99.90
11538;DHT22;50159;49.426;11.182;2023-12-29T07:15:33;6.70;99.90
11538;DHT22;50159;49.426;11.182;2023-12-29T07:18:00;6.70;99.90
11538;DHT22;50159;49.426;11.182;2023-12-29T07:20:27;6.70;99.90
11538;DHT22;50159;49.426;11.182;2023-12-29T07:22:55;6.70;99.90
11538;DHT22;50159;49.426;11.182;2023-12-29T07:25:21;6.80;99.90
11538;DHT22;50159;49.426;11.182;2023-12-29T07:27:48;6.80;99.90
11538;DHT22;50159;49.426;11.182;2023-12-29T07:30:16;6.80;99.90
11538;DHT22;50159;49.426;11.182;2023-12-29T07:32:43;6.80;99.90
11538;DHT22;50159;49.426;11.182;2023-12-29T07:35:10;6.80;99.90
11538;DHT22;50159;49.426;11.182;2023-12-29T07:37:37;6.80;99.90
11538;DHT22;50159;49.426;11.182;2023-12-29T07:40:04;6.90;99.90
11538;DHT22;50159;49.426;11.182;2023-12-29T07:42:35;6.90;99.90
11538;DHT22;50159;49.426;11.182;2023-12-29T07:45:02;6.90;99.90
11538;DHT22;50159;49.426;11.182;2023-12-29T07:47:31;6.90;99.90
11538;DHT22;50159;49.426;11.182;2023-12-29T07:49:58;7.00;99.90
11538;DHT22;50159;49.426;11.182;2023-12-29T07:52:25;7.00;99.90
11538;DHT22;50159;49.426;11.182;2023-12-29T07:54:52;7.00;99.90
11538;DHT22;50159;49.426;11.182;2023-12-29T07:57:18;7.00;99.90
11538;DHT22;50159;49.426;11.182;2023-12-29T07:59:45;7.00;99.90
11538;DHT22;50159;49.426;11.182;2023-12-29T08:02:12;7.10;99.90
11538;DHT22;50159;49.426;11.182;2023-12-29T08:04:39;7.10;99.90
11538;DHT22;50159;49.426;11.182;2023-12-29T08:07:06;7.20;99.90
11538;DHT22;50159;49.426;11.182;2023-12-29T08:09:33;7.20;99.90
11538;DHT22;50159;49.426;11.182;2023-12-29T08:12:00;7.30;99.90
11538;DHT22;50159;49.426;11.182;2023-12-29T08:14:27;7.30;99.90
11538;DHT22;50159;49.426;11.182;2023-12-29T08:16:54;7.40;99.90
11538;DHT22;50159;49.426;11.182;2023-12-29T08:19:23;7.50;99.90
11538;DHT22;50159;49.426;11.182;2023-12-29T08:21:51;7.60;99.90
11538;DHT22;50159;49.426;11.182;2023-12-29T08:24:18;7.60;99.90
11538;DHT22;50159;49.426;11.182;2023-12-29T08:26:47;7.60;99.90
11538;DHT22;50159;49.426;11.182;2023-12-29T08:29:14;7.60;99.90
11538;DHT22;50159;49.426;11.182;2023-12-29T08:31:42;7.60;99.90
11538;DHT22;50159;49.426;11.182;2023-12-29T08:34:10;7.70;99.90
11538;DHT22;50159;49.426;11.182;2023-12-29T08:36:37;7.70;99.90
11538;DHT22;50159;49.426;11.182;2023-12-29T08:39:04;7.80;99.90
11538;DHT22;50159;49.426;11.182;2023-12-29T08:41:32;7.80;99.90
11538;DHT22;50159;49.426;11.182;2023-12-29T08:43:58;7.80;99.90
11538;DHT22;50159;49.426;11.182;2023-12-29T08:46:25;7.80;99.90
11538;DHT22;50159;49.426;11.182;2023-12-29T08:48:52;7.90;99.90
11538;DHT22;50159;49.426;11.182;2023-12-29T08:51:20;7.90;99.90
11538;DHT22;50159;49.426;11.182;2023-12-29T08:53:47;7.90;99.90
11538;DHT22;50159;49.426;11.182;2023-12-29T08:56:14;7.90;99.90
11538;DHT22;50159;49.426;11.182;2023-12-29T08:58:41;8.00;99.90
11538;DHT22;50159;49.426;11.182;2023-12-29T09:01:08;8.00;99.90
11538;DHT22;50159;49.426;11.182;2023-12-29T09:03:35;8.10;99.90
11538;DHT22;50159;49.426;11.182;2023-12-29T09:06:02;8.10;99.90
11538;DHT22;50159;49.426;11.182;2023-12-29T09:08:30;8.20;99.90
11538;DHT22;50159;49.426;11.182;2023-12-29T09:10:57;8.20;99.90
11538;DHT22;50159;49.426;11.182;2023-12-29T09:13:24;8.30;99.90
11538;DHT22;50159;49.426;11.182;2023-12-29T09:15:54;8.30;99.90
11538;DHT22;50159;49.426;11.182;2023-12-29T09:18:21;8.30;99.90
11538;DHT22;50159;49.426;11.182;2023-12-29T09:20:48;8.30;99.90
11538;DHT22;50159;49.426;11.182;2023-12-29T09:23:16;8.30;99.90
11538;DHT22;50159;49.426;11.182;2023-12-29T09:25:43;8.30;99.90
11538;DHT22;50159;49.426;11.182;2023-12-29T09:28:10;8.40;99.90
11538;DHT22;50159;49.426;11.182;2023-12-29T09:30:37;8.50;99.90
11538;DHT22;50159;49.426;11.182;2023-12-29T09:33:04;8.50;99.90
11538;DHT22;50159;49.426;11.182;2023-12-29T09:35:31;8.60;99.90
11538;DHT22;50159;49.426;11.182;2023-12-29T09:38:01;8.70;99.90
11538;DHT22;50159;49.426;11.182;2023-12-29T09:40:28;8.70;99.90
11538;DHT22;50159;49.426;11.182;2023-12-29T09:42:55;8.70;99.90
11538;DHT22;50159;49.426;11.182;2023-12-29T09:45:26;8.70;99.90
11538;DHT22;50159;49.426;11.182;2023-12-29T09:47:54;8.60;99.90
11538;DHT22;50159;49.426;11.182;2023-12-29T09:50:25;8.60;99.90
11538;DHT22;50159;49.426;11.182;2023-12-29T09:52:54;8.50;99.90
11538;DHT22;50159;49.426;11.182;2023-12-29T09:55:21;8.50;99.90
11538;DHT22;50159;49.426;11.182;2023-12-29T09:57:48;8.40;99.90
11538;DHT22;50159;49.426;11.182;2023-12-29T10:00:16;8.40;99.90
11538;DHT22;50159;49.426;11.182;2023-12-29T10:02:44;8.40;99.90
11538;DHT22;50159;49.426;11.182;2023-12-29T10:05:11;8.40;99.90
11538;DHT22;50159;49.426;11.182;2023-12-29T10:07:39;8.40;99.90
11538;DHT22;50159;49.426;11.182;2023-12-29T10:10:14;8.40;99.90
11538;DHT22;50159;49.426;11.182;2023-12-29T10:12:44;8.40;99.90
11538;DHT22;50159;49.426;11.182;2023-12-29T10:15:20;8.40;99.90
11538;DHT22;50159;49.426;11.182;2023-12-29T10:18:14;8.40;99.90
11538;DHT22;50159;49.426;11.182;2023-12-29T10:21:07;8.40;99.90
11538;DHT22;50159;49.426;11.182;2023-12-29T10:23:44;8.40;99.90
11538;DHT22;50159;49.426;11.182;2023-12-29T10:26:17;8.50;99.90
11538;DHT22;50159;49.426;11.182;2023-12-29T10:28:47;8.50;99.90
11538;DHT22;50159;49.426;11.182;2023-12-29T10:31:15;8.40;99.90
11538;DHT22;50159;49.426;11.182;2023-12-29T10:33:43;8.40;99.90
11538;DHT22;50159;49.426;11.182;2023-12-29T10:36:10;8.30;99.90
11538;DHT22;50159;49.426;11.182;2023-12-29T10:38:39;8.30;99.90
11538;DHT22;50159;49.426;11.182;2023-12-29T10:41:16;8.30;99.90
11538;DHT22;50159;49.426;11.182;2023-12-29T10:43:45;8.30;99.90
11538;DHT22;50159;49.426;11.182;2023-12-29T10:46:14;8.30;99.90
11538;DHT22;50159;49.426;11.182;2023-12-29T10:48:41;8.30;99.90
11538;DHT22;50159;49.426;11.182;2023-12-29T10:51:08;8.30;99.90
11538;DHT22;50159;49.426;11.182;2023-12-29T10:53:36;8.30;99.90
11538;DHT22;50159;49.426;11.182;2023-12-29T10:56:17;8.40;99.90
11538;DHT22;50159;49.426;11.182;2023-12-29T10:59:00;8.40;99.90
11538;DHT22;50159;49.426;11.182;2023-12-29T11:01:35;8.50;99.90
11538;DHT22;50159;49.426;11.182;2023-12-29T11:04:06;8.60;99.90
11538;DHT22;50159;49.426;11.182;2023-12-29T11:06:43;8.70;99.90
11538;DHT22;50159;49.426;11.182;2023-12-29T11:09:30;8.80;99.90
11538;DHT22;50159;49.426;11.182;2023-12-29T11:12:00;9.00;99.90
11538;DHT22;50159;49.426;11.182;2023-12-29T11:14:29;9.10;99.90
11538;DHT22;50159;49.426;11.182;2023-12-29T11:16:57;9.30;99.90
11538;DHT22;50159;49.426;11.182;2023-12-29T11:19:27;7.90;99.90
11538;DHT22;50159;49.426;11.182;2023-12-29T11:21:56;9.50;99.90
11538;DHT22;50159;49.426;11.182;2023-12-29T11:24:24;9.40;99.90
11538;DHT22;50159;49.426;11.182;2023-12-29T11:27:06;9.40;99.90
11538;DHT22;50159;49.426;11.182;2023-12-29T11:29:35;9.40;99.90
11538;DHT22;50159;49.426;11.182;2023-12-29T11:32:06;9.40;99.90
11538;DHT22;50159;49.426;11.182;2023-12-29T11:34:46;9.30;99.90
11538;DHT22;50159;49.426;11.182;2023-12-29T11:40:22;9.20;99.90
11538;DHT22;50159;49.426;11.182;2023-12-29T11:42:57;9.40;99.90
11538;DHT22;50159;49.426;11.182;2023-12-29T11:45:31;9.70;99.90
11538;DHT22;50159;49.426;11.182;2023-12-29T11:48:04;9.80;99.90
11538;DHT22;50159;49.426;11.182;2023-12-29T11:50:36;9.90;99.90
11538;DHT22;50159;49.426;11.182;2023-12-29T11:53:05;9.80;99.90
11538;DHT22;50159;49.426;11.182;2023-12-29T11:55:37;9.70;99.90
11538;DHT22;50159;49.426;11.182;2023-12-29T11:58:23;9.60;99.90
11538;DHT22;50159;49.426;11.182;2023-12-29T12:00:52;9.70;99.90
11538;DHT22;50159;49.426;11.182;2023-12-29T12:03:27;9.80;99.90
11538;DHT22;50159;49.426;11.182;2023-12-29T12:05:58;10.20;99.90
11538;DHT22;50159;49.426;11.182;2023-12-29T12:08:35;11.50;99.90
11538;DHT22;50159;49.426;11.182;2023-12-29T12:13:56;11.90;99.90
11538;DHT22;50159;49.426;11.182;2023-12-29T12:16:47;11.40;99.90
11538;DHT22;50159;49.426;11.182;2023-12-29T12:19:16;10.90;99.90
11538;DHT22;50159;49.426;11.182;2023-12-29T12:21:46;10.60;99.90
11538;DHT22;50159;49.426;11.182;2023-12-29T12:24:18;10.40;99.90
11538;DHT22;50159;49.426;11.182;2023-12-29T12:26:45;10.20;99.90
11538;DHT22;50159;49.426;11.182;2023-12-29T12:29:13;10.10;99.90
11538;DHT22;50159;49.426;11.182;2023-12-29T12:31:56;10.00;99.90
11538;DHT22;50159;49.426;11.182;2023-12-29T12:34:24;10.00;99.90
11538;DHT22;50159;49.426;11.182;2023-12-29T12:36:53;9.90;99.90
11538;DHT22;50159;49.426;11.182;2023-12-29T12:39:23;10.20;99.90
11538;DHT22;50159;49.426;11.182;2023-12-29T12:41:50;11.30;99.90
11538;DHT22;50159;49.426;11.182;2023-12-29T12:44:17;13.10;99.90
11538;DHT22;50159;49.426;11.182;2023-12-29T12:46:50;14.70;99.90
11538;DHT22;50159;49.426;11.182;2023-12-29T12:54:18;16.40;99.90
11538;DHT22;50159;49.426;11.182;2023-12-29T12:56:49;16.60;94.50
11538;DHT22;50159;49.426;11.182;2023-12-29T12:59:16;15.90;93.80
11538;DHT22;50159;49.426;11.182;2023-12-29T13:01:44;14.90;94.60
11538;DHT22;50159;49.426;11.182;2023-12-29T13:04:12;14.10;97.50
11538;DHT22;50159;49.426;11.182;2023-12-29T13:06:41;13.60;99.40
11538;DHT22;50159;49.426;11.182;2023-12-29T13:09:17;13.30;99.50
11538;DHT22;50159;49.426;11.182;2023-12-29T13:11:46;13.10;99.90
11538;DHT22;50159;49.426;11.182;2023-12-29T13:14:22;12.80;99.90
11538;DHT22;50159;49.426;11.182;2023-12-29T13:16:50;12.60;99.90
11538;DHT22;50159;49.426;11.182;2023-12-29T13:19:21;12.40;99.90
11538;DHT22;50159;49.426;11.182;2023-12-29T13:21:52;12.40;99.90
11538;DHT22;50159;49.426;11.182;2023-12-29T13:24:22;12.30;99.90
11538;DHT22;50159;49.426;11.182;2023-12-29T13:26:52;12.00;99.90
11538;DHT22;50159;49.426;11.182;2023-12-29T13:29:25;12.00;98.70
11538;DHT22;50159;49.426;11.182;2023-12-29T13:31:56;11.90;98.10
11538;DHT22;50159;49.426;11.182;2023-12-29T13:40:59;11.40;98.30
11538;DHT22;50159;49.426;11.182;2023-12-29T13:43:32;11.30;98.00
11538;DHT22;50159;49.426;11.182;2023-12-29T13:46:02;11.30;97.90
11538;DHT22;50159;49.426;11.182;2023-12-29T13:48:31;11.30;97.60
11538;DHT22;50159;49.426;11.182;2023-12-29T13:50:59;11.30;97.50
11538;DHT22;50159;49.426;11.182;2023-12-29T13:53:26;11.30;97.40
11538;DHT22;50159;49.426;11.182;2023-12-29T13:55:53;11.20;97.70
11538;DHT22;50159;49.426;11.182;2023-12-29T13:58:20;11.20;97.40
11538;DHT22;50159;49.426;11.182;2023-12-29T14:00:56;11.10;97.70
11538;DHT22;50159;49.426;11.182;2023-12-29T14:03:31;11.00;97.80
11538;DHT22;50159;49.426;11.182;2023-12-29T14:06:07;10.90;98.20
11538;DHT22;50159;49.426;11.182;2023-12-29T14:08:44;10.80;98.30
11538;DHT22;50159;49.426;11.182;2023-12-29T14:11:12;10.80;98.80
11538;DHT22;50159;49.426;11.182;2023-12-29T14:13:43;10.70;98.80
11538;DHT22;50159;49.426;11.182;2023-12-29T14:16:11;10.70;98.90
11538;DHT22;50159;49.426;11.182;2023-12-29T14:18:54;10.70;98.90
11538;DHT22;50159;49.426;11.182;2023-12-29T14:24:14;10.60;99.40
11538;DHT22;50159;49.426;11.182;2023-12-29T14:29:22;10.40;99.90
11538;DHT22;50159;49.426;11.182;2023-12-29T14:31:50;10.40;99.90
11538;DHT22;50159;49.426;11.182;2023-12-29T14:34:19;10.30;99.90
11538;DHT22;50159;49.426;11.182;2023-12-29T14:36:46;10.30;99.90
11538;DHT22;50159;49.426;11.182;2023-12-29T14:39:13;10.30;99.90
11538;DHT22;50159;49.426;11.182;2023-12-29T14:41:42;10.30;99.90
11538;DHT22;50159;49.426;11.182;2023-12-29T14:44:09;10.20;99.90
11538;DHT22;50159;49.426;11.182;2023-12-29T14:46:36;10.20;99.90
11538;DHT22;50159;49.426;11.182;2023-12-29T14:49:04;10.20;99.90
11538;DHT22;50159;49.426;11.182;2023-12-29T14:51:32;10.20;99.90
11538;DHT22;50159;49.426;11.182;2023-12-29T14:53:59;10.20;99.90
11538;DHT22;50159;49.426;11.182;2023-12-29T14:56:26;10.10;99.90
11538;DHT22;50159;49.426;11.182;2023-12-29T14:58:52;10.10;99.90
11538;DHT22;50159;49.426;11.182;2023-12-29T15:01:19;10.10;99.90
11538;DHT22;50159;49.426;11.182;2023-12-29T15:03:46;10.10;99.90
11538;DHT22;50159;49.426;11.182;2023-12-29T15:06:13;10.00;99.90
11538;DHT22;50159;49.426;11.182;2023-12-29T15:08:40;10.10;99.90
11538;DHT22;50159;49.426;11.182;2023-12-29T15:11:07;10.00;99.90
11538;DHT22;50159;49.426;11.182;2023-12-29T15:13:34;10.00;99.90
11538;DHT22;50159;49.426;11.182;2023-12-29T15:16:02;10.00;99.90
11538;DHT22;50159;49.426;11.182;2023-12-29T15:18:30;9.90;99.90
11538;DHT22;50159;49.426;11.182;2023-12-29T15:20:58;9.80;99.90
11538;DHT22;50159;49.426;11.182;2023-12-29T15:23:25;9.80;99.90
11538;DHT22;50159;49.426;11.182;2023-12-29T15:25:54;9.80;99.90
11538;DHT22;50159;49.426;11.182;2023-12-29T15:28:21;9.80;99.90
11538;DHT22;50159;49.426;11.182;2023-12-29T15:30:49;9.80;99.90
11538;DHT22;50159;49.426;11.182;2023-12-29T15:33:17;9.80;99.90
11538;DHT22;50159;49.426;11.182;2023-12-29T15:35:44;9.80;99.90
11538;DHT22;50159;49.426;11.182;2023-12-29T15:38:11;9.80;99.90
11538;DHT22;50159;49.426;11.182;2023-12-29T15:40:37;9.80;99.90
11538;DHT22;50159;49.426;11.182;2023-12-29T15:43:04;9.80;99.90
11538;DHT22;50159;49.426;11.182;2023-12-29T15:45:34;9.80;99.90
11538;DHT22;50159;49.426;11.182;2023-12-29T15:48:01;9.80;99.90
11538;DHT22;50159;49.426;11.182;2023-12-29T15:50:30;9.70;99.90
11538;DHT22;50159;49.426;11.182;2023-12-29T15:52:56;9.70;99.90
11538;DHT22;50159;49.426;11.182;2023-12-29T15:55:23;9.60;99.90
11538;DHT22;50159;49.426;11.182;2023-12-29T15:57:50;9.60;99.90
11538;DHT22;50159;49.426;11.182;2023-12-29T16:00:18;9.50;99.90